sensor_id;sensor_type;location;lat;lon;timestamp;pressure;altitude;pressure_sealevel;temperature;humidity
12799;BME280;19250;42.646;26.980;2023-06-14T00:01:08;98594.00;;;18.88;100.00
12799;BME280;19250;42.646;26.980;2023-06-14T00:03:34;98596.81;;;18.12;100.00
12799;BME280;19250;42.646;26.980;2023-06-14T00:06:03;98590.31;;;17.88;100.00
12799;BME280;19250;42.646;26.980;2023-06-14T00:08:30;98602.66;;;18.09;100.00
12799;BME280;19250;42.646;26.980;2023-06-14T00:10:57;98595.84;;;18.00;100.00
12799;BME280;19250;42.646;26.980;2023-06-14T00:13:24;98591.59;;;18.17;100.00
12799;BME280;19250;42.646;26.980;2023-06-14T00:15:51;98597.97;;;18.61;100.00
12799;BME280;19250;42.646;26.980;2023-06-14T00:18:20;98584.03;;;18.64;100.00
12799;BME280;19250;42.646;26.980;2023-06-14T00:20:49;98518.91;;;18.22;100.00
12799;BME280;19250;42.646;26.980;2023-06-14T00:23:18;98581.31;;;18.32;100.00
12799;BME280;19250;42.646;26.980;2023-06-14T00:25:44;98583.25;;;17.87;100.00
12799;BME280;19250;42.646;26.980;2023-06-14T00:28:11;98582.19;;;17.37;100.00
12799;BME280;19250;42.646;26.980;2023-06-14T00:30:39;98579.28;;;17.39;100.00
12799;BME280;19250;42.646;26.980;2023-06-14T00:33:05;98576.44;;;17.27;100.00
12799;BME280;19250;42.646;26.980;2023-06-14T00:35:33;98582.19;;;17.37;100.00
12799;BME280;19250;42.646;26.980;2023-06-14T00:38:00;98580.66;;;17.68;100.00
12799;BME280;19250;42.646;26.980;2023-06-14T00:40:28;98578.16;;;17.73;100.00
12799;BME280;19250;42.646;26.980;2023-06-14T00:42:56;98571.50;;;17.75;100.00
12799;BME280;19250;42.646;26.980;2023-06-14T00:45:23;98579.88;;;17.48;100.00
12799;BME280;19250;42.646;26.980;2023-06-14T00:47:50;98577.63;;;17.89;100.00
12799;BME280;19250;42.646;26.980;2023-06-14T00:50:20;98576.91;;;18.13;100.00
12799;BME280;19250;42.646;26.980;2023-06-14T00:52:48;98570.88;;;18.42;100.00
12799;BME280;19250;42.646;26.980;2023-06-14T00:55:16;98573.06;;;18.59;100.00
12799;BME280;19250;42.646;26.980;2023-06-14T00:57:44;98500.47;;;17.88;100.00
12799;BME280;19250;42.646;26.980;2023-06-14T01:00:11;98569.78;;;18.50;100.00
12799;BME280;19250;42.646;26.980;2023-06-14T01:02:39;98570.97;;;18.61;100.00
12799;BME280;19250;42.646;26.980;2023-06-14T01:05:08;98568.22;;;18.36;100.00
12799;BME280;19250;42.646;26.980;2023-06-14T01:10:36;98573.94;;;18.21;100.00
12799;BME280;19250;42.646;26.980;2023-06-14T01:13:15;98539.63;;;18.28;100.00
12799;BME280;19250;42.646;26.980;2023-06-14T01:15:46;98574.84;;;18.40;100.00
12799;BME280;19250;42.646;26.980;2023-06-14T01:18:13;98571.00;;;18.54;100.00
12799;BME280;19250;42.646;26.980;2023-06-14T01:20:42;98574.69;;;18.60;100.00
12799;BME280;19250;42.646;26.980;2023-06-14T01:23:11;98568.16;;;18.49;100.00
12799;BME280;19250;42.646;26.980;2023-06-14T01:25:38;98574.16;;;18.44;100.00
12799;BME280;19250;42.646;26.980;2023-06-14T01:28:06;98573.22;;;18.32;100.00
12799;BME280;19250;42.646;26.980;2023-06-14T01:30:35;98572.91;;;18.22;100.00
12799;BME280;19250;42.646;26.980;2023-06-14T01:33:03;98569.94;;;17.92;100.00
12799;BME280;19250;42.646;26.980;2023-06-14T01:35:31;98570.78;;;17.93;100.00
12799;BME280;19250;42.646;26.980;2023-06-14T01:37:58;98567.09;;;17.23;100.00
12799;BME280;19250;42.646;26.980;2023-06-14T01:40:27;98563.16;;;17.26;100.00
12799;BME280;19250;42.646;26.980;2023-06-14T01:42:55;98571.94;;;17.66;100.00
12799;BME280;19250;42.646;26.980;2023-06-14T01:45:22;98569.59;;;17.82;100.00
12799;BME280;19250;42.646;26.980;2023-06-14T01:47:49;98566.72;;;18.15;100.00
12799;BME280;19250;42.646;26.980;2023-06-14T01:50:18;98567.84;;;17.57;100.00
12799;BME280;19250;42.646;26.980;2023-06-14T01:52:45;98569.19;;;17.79;100.00
12799;BME280;19250;42.646;26.980;2023-06-14T01:55:12;98575.78;;;17.89;100.00
12799;BME280;19250;42.646;26.980;2023-06-14T01:57:40;98569.63;;;18.07;100.00
12799;BME280;19250;42.646;26.980;2023-06-14T02:00:08;98579.16;;;18.16;100.00
12799;BME280;19250;42.646;26.980;2023-06-14T02:02:38;98581.13;;;17.96;100.00
12799;BME280;19250;42.646;26.980;2023-06-14T02:05:05;98590.81;;;18.10;100.00
12799;BME280;19250;42.646;26.980;2023-06-14T02:07:31;98583.06;;;18.20;100.00
12799;BME280;19250;42.646;26.980;2023-06-14T02:09:58;98584.00;;;18.32;100.00
12799;BME280;19250;42.646;26.980;2023-06-14T02:12:25;98584.94;;;18.20;100.00
12799;BME280;19250;42.646;26.980;2023-06-14T02:14:54;98578.50;;;18.21;100.00
12799;BME280;19250;42.646;26.980;2023-06-14T02:17:21;98585.69;;;18.33;100.00
12799;BME280;19250;42.646;26.980;2023-06-14T02:19:48;98585.78;;;18.14;100.00
12799;BME280;19250;42.646;26.980;2023-06-14T02:22:15;98587.44;;;18.21;100.00
12799;BME280;19250;42.646;26.980;2023-06-14T02:24:42;98589.41;;;18.32;100.00
12799;BME280;19250;42.646;26.980;2023-06-14T02:27:10;98584.88;;;18.26;100.00
12799;BME280;19250;42.646;26.980;2023-06-14T02:29:37;98588.66;;;18.25;100.00
12799;BME280;19250;42.646;26.980;2023-06-14T02:32:06;98589.78;;;18.42;100.00
12799;BME280;19250;42.646;26.980;2023-06-14T02:34:33;98600.31;;;18.19;100.00
12799;BME280;19250;42.646;26.980;2023-06-14T02:37:01;98595.09;;;18.24;100.00
12799;BME280;19250;42.646;26.980;2023-06-14T02:39:29;98597.94;;;18.29;100.00
12799;BME280;19250;42.646;26.980;2023-06-14T02:41:56;98602.59;;;18.22;100.00
12799;BME280;19250;42.646;26.980;2023-06-14T02:44:24;98609.28;;;18.13;100.00
12799;BME280;19250;42.646;26.980;2023-06-14T02:46:52;98610.69;;;18.22;100.00
12799;BME280;19250;42.646;26.980;2023-06-14T02:49:20;98612.00;;;18.07;100.00
12799;BME280;19250;42.646;26.980;2023-06-14T02:51:48;98618.47;;;17.99;100.00
12799;BME280;19250;42.646;26.980;2023-06-14T02:54:15;98626.47;;;18.19;100.00
12799;BME280;19250;42.646;26.980;2023-06-14T02:56:41;98631.63;;;17.82;100.00
12799;BME280;19250;42.646;26.980;2023-06-14T02:59:08;98624.91;;;17.98;100.00
12799;BME280;19250;42.646;26.980;2023-06-14T03:01:35;98629.38;;;17.79;100.00
12799;BME280;19250;42.646;26.980;2023-06-14T03:04:06;98621.75;;;17.57;100.00
12799;BME280;19250;42.646;26.980;2023-06-14T03:06:34;98615.31;;;17.64;100.00
12799;BME280;19250;42.646;26.980;2023-06-14T03:09:02;98626.44;;;17.81;100.00
12799;BME280;19250;42.646;26.980;2023-06-14T03:11:30;98621.13;;;17.48;100.00
12799;BME280;19250;42.646;26.980;2023-06-14T03:13:57;98634.63;;;17.55;100.00
12799;BME280;19250;42.646;26.980;2023-06-14T03:16:24;98624.44;;;17.50;100.00
12799;BME280;19250;42.646;26.980;2023-06-14T03:18:54;98625.72;;;17.34;100.00
12799;BME280;19250;42.646;26.980;2023-06-14T03:21:21;98623.59;;;17.69;100.00
12799;BME280;19250;42.646;26.980;2023-06-14T03:23:49;98630.13;;;17.93;100.00
12799;BME280;19250;42.646;26.980;2023-06-14T03:26:16;98626.31;;;17.43;100.00
12799;BME280;19250;42.646;26.980;2023-06-14T03:28:43;98618.72;;;17.07;100.00
12799;BME280;19250;42.646;26.980;2023-06-14T03:31:11;98625.53;;;17.29;100.00
12799;BME280;19250;42.646;26.980;2023-06-14T03:33:37;98619.28;;;17.42;100.00
12799;BME280;19250;42.646;26.980;2023-06-14T03:36:05;98622.16;;;17.54;100.00
12799;BME280;19250;42.646;26.980;2023-06-14T03:38:32;98623.97;;;18.17;100.00
12799;BME280;19250;42.646;26.980;2023-06-14T03:41:00;98624.84;;;18.11;100.00
12799;BME280;19250;42.646;26.980;2023-06-14T03:43:27;98627.03;;;17.89;100.00
12799;BME280;19250;42.646;26.980;2023-06-14T03:45:55;98631.34;;;17.39;100.00
12799;BME280;19250;42.646;26.980;2023-06-14T03:48:22;98626.19;;;17.89;100.00
12799;BME280;19250;42.646;26.980;2023-06-14T03:50:49;98630.78;;;18.26;100.00
12799;BME280;19250;42.646;26.980;2023-06-14T03:53:16;98629.78;;;18.21;100.00
12799;BME280;19250;42.646;26.980;2023-06-14T03:55:45;98631.50;;;18.09;100.00
12799;BME280;19250;42.646;26.980;2023-06-14T03:58:15;98624.41;;;17.70;100.00
12799;BME280;19250;42.646;26.980;2023-06-14T04:00:42;98627.88;;;17.83;100.00
12799;BME280;19250;42.646;26.980;2023-06-14T04:03:09;98631.22;;;17.85;100.00
12799;BME280;19250;42.646;26.980;2023-06-14T04:05:36;98633.72;;;18.25;100.00
12799;BME280;19250;42.646;26.980;2023-06-14T04:08:03;98625.81;;;18.23;100.00
12799;BME280;19250;42.646;26.980;2023-06-14T04:10:34;98635.78;;;18.23;100.00
12799;BME280;19250;42.646;26.980;2023-06-14T04:13:01;98625.47;;;18.51;100.00
12799;BME280;19250;42.646;26.980;2023-06-14T04:15:29;98629.22;;;18.43;100.00
12799;BME280;19250;42.646;26.980;2023-06-14T04:17:56;98629.75;;;17.83;100.00
12799;BME280;19250;42.646;26.980;2023-06-14T04:20:23;98620.75;;;18.02;100.00
12799;BME280;19250;42.646;26.980;2023-06-14T04:22:50;98625.13;;;18.34;100.00
12799;BME280;19250;42.646;26.980;2023-06-14T04:25:18;98624.63;;;18.51;100.00
12799;BME280;19250;42.646;26.980;2023-06-14T04:27:44;98631.03;;;18.81;100.00
12799;BME280;19250;42.646;26.980;2023-06-14T04:30:12;98626.22;;;18.89;100.00
12799;BME280;19250;42.646;26.980;2023-06-14T04:32:40;98638.59;;;18.72;100.00
12799;BME280;19250;42.646;26.980;2023-06-14T04:35:08;98639.88;;;18.70;100.00
12799;BME280;19250;42.646;26.980;2023-06-14T04:37:35;98647.97;;;18.70;100.00
12799;BME280;19250;42.646;26.980;2023-06-14T04:40:06;98653.22;;;19.14;100.00
12799;BME280;19250;42.646;26.980;2023-06-14T04:42:33;98661.25;;;19.45;100.00
12799;BME280;19250;42.646;26.980;2023-06-14T04:45:02;98669.38;;;19.82;100.00
12799;BME280;19250;42.646;26.980;2023-06-14T04:47:29;98664.63;;;20.32;100.00
12799;BME280;19250;42.646;26.980;2023-06-14T04:49:58;98667.56;;;20.60;100.00
12799;BME280;19250;42.646;26.980;2023-06-14T04:52:25;98662.03;;;19.52;100.00
12799;BME280;19250;42.646;26.980;2023-06-14T04:54:55;98662.47;;;20.04;100.00
12799;BME280;19250;42.646;26.980;2023-06-14T04:57:22;98664.66;;;20.43;100.00
12799;BME280;19250;42.646;26.980;2023-06-14T04:59:50;98669.25;;;20.73;100.00
12799;BME280;19250;42.646;26.980;2023-06-14T05:02:20;98674.31;;;20.69;100.00
12799;BME280;19250;42.646;26.980;2023-06-14T05:04:47;98675.53;;;20.85;100.00
12799;BME280;19250;42.646;26.980;2023-06-14T05:07:16;98674.00;;;20.89;100.00
12799;BME280;19250;42.646;26.980;2023-06-14T05:09:43;98676.47;;;21.43;100.00
12799;BME280;19250;42.646;26.980;2023-06-14T05:12:10;98688.34;;;21.54;100.00
12799;BME280;19250;42.646;26.980;2023-06-14T05:14:37;98684.34;;;21.45;100.00
12799;BME280;19250;42.646;26.980;2023-06-14T05:17:04;98679.31;;;20.95;100.00
12799;BME280;19250;42.646;26.980;2023-06-14T05:19:31;98689.47;;;20.58;100.00
12799;BME280;19250;42.646;26.980;2023-06-14T05:21:58;98686.72;;;20.47;100.00
12799;BME280;19250;42.646;26.980;2023-06-14T05:24:27;98680.59;;;20.93;100.00
12799;BME280;19250;42.646;26.980;2023-06-14T05:26:55;98683.75;;;21.20;100.00
12799;BME280;19250;42.646;26.980;2023-06-14T05:29:22;98676.00;;;20.52;100.00
12799;BME280;19250;42.646;26.980;2023-06-14T05:31:49;98690.41;;;20.34;100.00
12799;BME280;19250;42.646;26.980;2023-06-14T05:34:16;98684.59;;;20.79;100.00
12799;BME280;19250;42.646;26.980;2023-06-14T05:36:43;98695.19;;;21.33;100.00
12799;BME280;19250;42.646;26.980;2023-06-14T05:39:10;98697.69;;;21.46;100.00
12799;BME280;19250;42.646;26.980;2023-06-14T05:41:38;98697.25;;;22.24;100.00
12799;BME280;19250;42.646;26.980;2023-06-14T05:44:05;98699.88;;;22.75;97.01
12799;BME280;19250;42.646;26.980;2023-06-14T05:46:33;98704.06;;;22.66;96.42
12799;BME280;19250;42.646;26.980;2023-06-14T05:48:59;98705.38;;;23.09;93.01
12799;BME280;19250;42.646;26.980;2023-06-14T05:51:27;98712.34;;;22.88;94.22
12799;BME280;19250;42.646;26.980;2023-06-14T05:53:54;98722.09;;;23.01;94.60
12799;BME280;19250;42.646;26.980;2023-06-14T05:56:21;98716.50;;;23.24;90.70
12799;BME280;19250;42.646;26.980;2023-06-14T05:58:50;98722.06;;;23.46;91.22
12799;BME280;19250;42.646;26.980;2023-06-14T06:01:17;98723.56;;;23.92;86.96
12799;BME280;19250;42.646;26.980;2023-06-14T06:03:43;98719.16;;;23.36;87.66
12799;BME280;19250;42.646;26.980;2023-06-14T06:06:13;98730.16;;;23.96;87.67
12799;BME280;19250;42.646;26.980;2023-06-14T06:08:40;98727.13;;;23.54;86.53
12799;BME280;19250;42.646;26.980;2023-06-14T06:11:07;98728.59;;;23.00;92.05
12799;BME280;19250;42.646;26.980;2023-06-14T06:13:34;98733.19;;;23.77;85.18
12799;BME280;19250;42.646;26.980;2023-06-14T06:16:03;98730.16;;;23.41;88.09
12799;BME280;19250;42.646;26.980;2023-06-14T06:18:30;98727.50;;;24.01;84.16
12799;BME280;19250;42.646;26.980;2023-06-14T06:20:57;98736.41;;;24.56;80.45
12799;BME280;19250;42.646;26.980;2023-06-14T06:23:24;98743.41;;;24.96;76.33
12799;BME280;19250;42.646;26.980;2023-06-14T06:25:51;98739.41;;;24.76;73.50
12799;BME280;19250;42.646;26.980;2023-06-14T06:28:18;98723.16;;;25.13;72.37
12799;BME280;19250;42.646;26.980;2023-06-14T06:30:45;98727.44;;;25.04;72.34
12799;BME280;19250;42.646;26.980;2023-06-14T06:33:14;98732.00;;;25.57;70.63
12799;BME280;19250;42.646;26.980;2023-06-14T06:35:41;98733.91;;;25.98;67.22
12799;BME280;19250;42.646;26.980;2023-06-14T06:38:08;98734.78;;;26.09;65.13
12799;BME280;19250;42.646;26.980;2023-06-14T06:40:35;98735.00;;;26.03;64.71
12799;BME280;19250;42.646;26.980;2023-06-14T06:43:02;98743.66;;;25.84;64.52
12799;BME280;19250;42.646;26.980;2023-06-14T06:45:29;98742.25;;;26.24;60.45
12799;BME280;19250;42.646;26.980;2023-06-14T06:47:56;98745.06;;;26.34;55.70
12799;BME280;19250;42.646;26.980;2023-06-14T06:50:24;98757.94;;;25.96;58.14
12799;BME280;19250;42.646;26.980;2023-06-14T06:52:51;98750.22;;;25.83;57.85
12799;BME280;19250;42.646;26.980;2023-06-14T06:55:18;98750.16;;;26.15;56.77
12799;BME280;19250;42.646;26.980;2023-06-14T06:57:45;98747.53;;;26.35;56.64
12799;BME280;19250;42.646;26.980;2023-06-14T07:00:12;98746.47;;;26.46;54.08
12799;BME280;19250;42.646;26.980;2023-06-14T07:02:39;98759.78;;;26.28;55.76
12799;BME280;19250;42.646;26.980;2023-06-14T07:05:06;98748.59;;;27.17;50.38
12799;BME280;19250;42.646;26.980;2023-06-14T07:07:35;98752.44;;;27.41;47.53
12799;BME280;19250;42.646;26.980;2023-06-14T07:10:02;98755.22;;;27.66;47.47
12799;BME280;19250;42.646;26.980;2023-06-14T07:12:30;98751.28;;;26.91;47.84
12799;BME280;19250;42.646;26.980;2023-06-14T07:14:59;98755.72;;;27.08;48.65
12799;BME280;19250;42.646;26.980;2023-06-14T07:17:25;98755.19;;;27.26;47.01
12799;BME280;19250;42.646;26.980;2023-06-14T07:19:53;98753.59;;;27.55;48.23
12799;BME280;19250;42.646;26.980;2023-06-14T07:22:19;98757.94;;;27.81;45.05
12799;BME280;19250;42.646;26.980;2023-06-14T07:24:48;98762.31;;;28.13;44.19
12799;BME280;19250;42.646;26.980;2023-06-14T07:27:15;98762.59;;;27.71;45.69
12799;BME280;19250;42.646;26.980;2023-06-14T07:29:42;98738.72;;;27.96;44.89
12799;BME280;19250;42.646;26.980;2023-06-14T07:32:09;98765.91;;;28.82;42.89
12799;BME280;19250;42.646;26.980;2023-06-14T07:34:36;98762.00;;;28.24;42.54
12799;BME280;19250;42.646;26.980;2023-06-14T07:37:03;98760.56;;;28.47;42.78
12799;BME280;19250;42.646;26.980;2023-06-14T07:39:30;98759.75;;;28.46;42.75
12799;BME280;19250;42.646;26.980;2023-06-14T07:41:58;98760.06;;;28.30;42.57
12799;BME280;19250;42.646;26.980;2023-06-14T07:44:27;98753.75;;;28.29;43.47
12799;BME280;19250;42.646;26.980;2023-06-14T07:46:54;98756.81;;;28.13;43.56
12799;BME280;19250;42.646;26.980;2023-06-14T07:49:23;98756.16;;;28.41;43.00
12799;BME280;19250;42.646;26.980;2023-06-14T07:51:50;98753.53;;;28.05;42.57
12799;BME280;19250;42.646;26.980;2023-06-14T07:54:18;98754.50;;;28.50;42.86
12799;BME280;19250;42.646;26.980;2023-06-14T07:56:50;98760.19;;;28.74;42.11
12799;BME280;19250;42.646;26.980;2023-06-14T07:59:18;98763.72;;;28.79;42.11
12799;BME280;19250;42.646;26.980;2023-06-14T08:01:45;98767.66;;;28.48;42.79
12799;BME280;19250;42.646;26.980;2023-06-14T08:04:13;98778.88;;;28.61;43.02
12799;BME280;19250;42.646;26.980;2023-06-14T08:06:40;98774.03;;;28.33;43.19
12799;BME280;19250;42.646;26.980;2023-06-14T08:09:09;98768.06;;;28.01;43.73
12799;BME280;19250;42.646;26.980;2023-06-14T08:11:36;98778.78;;;27.77;44.33
12799;BME280;19250;42.646;26.980;2023-06-14T08:14:03;98775.44;;;28.31;43.86
12799;BME280;19250;42.646;26.980;2023-06-14T08:16:32;98772.28;;;29.16;41.72
12799;BME280;19250;42.646;26.980;2023-06-14T08:18:59;98765.59;;;28.89;42.10
12799;BME280;19250;42.646;26.980;2023-06-14T08:21:26;98769.16;;;28.15;43.72
12799;BME280;19250;42.646;26.980;2023-06-14T08:23:54;98763.84;;;28.49;43.09
12799;BME280;19250;42.646;26.980;2023-06-14T08:26:21;98772.81;;;29.62;40.83
12799;BME280;19250;42.646;26.980;2023-06-14T08:28:48;98767.44;;;29.03;40.95
12799;BME280;19250;42.646;26.980;2023-06-14T08:31:15;98770.75;;;29.00;42.35
12799;BME280;19250;42.646;26.980;2023-06-14T08:33:43;98764.56;;;29.24;41.26
12799;BME280;19250;42.646;26.980;2023-06-14T08:36:10;98762.81;;;29.72;40.11
12799;BME280;19250;42.646;26.980;2023-06-14T08:38:38;98769.06;;;29.82;39.58
12799;BME280;19250;42.646;26.980;2023-06-14T08:41:05;98769.66;;;30.08;39.52
12799;BME280;19250;42.646;26.980;2023-06-14T08:43:32;98760.75;;;30.16;38.68
12799;BME280;19250;42.646;26.980;2023-06-14T08:46:00;98761.63;;;30.11;38.91
12799;BME280;19250;42.646;26.980;2023-06-14T08:48:27;98760.72;;;29.58;39.71
12799;BME280;19250;42.646;26.980;2023-06-14T08:50:55;98765.56;;;28.99;40.13
12799;BME280;19250;42.646;26.980;2023-06-14T08:53:27;98757.94;;;29.30;39.53
12799;BME280;19250;42.646;26.980;2023-06-14T08:55:57;98756.19;;;29.00;40.05
12799;BME280;19250;42.646;26.980;2023-06-14T08:58:27;98746.78;;;28.67;40.31
12799;BME280;19250;42.646;26.980;2023-06-14T09:00:55;98756.66;;;28.58;40.94
12799;BME280;19250;42.646;26.980;2023-06-14T09:03:22;98749.28;;;29.07;40.30
12799;BME280;19250;42.646;26.980;2023-06-14T09:05:57;98749.91;;;28.94;40.57
12799;BME280;19250;42.646;26.980;2023-06-14T09:08:26;98751.44;;;28.67;40.85
12799;BME280;19250;42.646;26.980;2023-06-14T09:10:55;98755.84;;;28.68;41.43
12799;BME280;19250;42.646;26.980;2023-06-14T09:13:23;98763.19;;;28.72;40.88
12799;BME280;19250;42.646;26.980;2023-06-14T09:15:50;98762.47;;;29.05;40.21
12799;BME280;19250;42.646;26.980;2023-06-14T09:18:17;98764.38;;;28.51;41.44
12799;BME280;19250;42.646;26.980;2023-06-14T09:20:45;98766.66;;;28.98;40.08
12799;BME280;19250;42.646;26.980;2023-06-14T09:23:14;98758.38;;;29.47;39.62
12799;BME280;19250;42.646;26.980;2023-06-14T09:25:46;98762.00;;;29.37;39.74
12799;BME280;19250;42.646;26.980;2023-06-14T09:28:13;98757.31;;;28.94;40.72
12799;BME280;19250;42.646;26.980;2023-06-14T09:30:40;98755.41;;;30.01;39.15
12799;BME280;19250;42.646;26.980;2023-06-14T09:33:07;98760.81;;;30.35;38.01
12799;BME280;19250;42.646;26.980;2023-06-14T09:35:35;98721.06;;;29.98;37.17
12799;BME280;19250;42.646;26.980;2023-06-14T09:38:02;98757.03;;;30.54;37.79
12799;BME280;19250;42.646;26.980;2023-06-14T09:40:34;98766.47;;;30.48;37.68
12799;BME280;19250;42.646;26.980;2023-06-14T09:43:03;98761.63;;;30.11;38.38
12799;BME280;19250;42.646;26.980;2023-06-14T09:45:30;98761.63;;;30.11;37.96
12799;BME280;19250;42.646;26.980;2023-06-14T09:47:57;98771.63;;;30.73;36.75
12799;BME280;19250;42.646;26.980;2023-06-14T09:50:24;98768.81;;;31.02;37.72
12799;BME280;19250;42.646;26.980;2023-06-14T09:52:52;98763.28;;;32.64;34.27
12799;BME280;19250;42.646;26.980;2023-06-14T09:55:19;98760.38;;;32.42;33.51
12799;BME280;19250;42.646;26.980;2023-06-14T09:57:50;98757.97;;;31.94;34.19
12799;BME280;19250;42.646;26.980;2023-06-14T10:00:18;98761.22;;;32.28;33.70
12799;BME280;19250;42.646;26.980;2023-06-14T10:02:51;98759.63;;;31.95;34.88
12799;BME280;19250;42.646;26.980;2023-06-14T10:05:21;98729.91;;;31.22;35.27
12799;BME280;19250;42.646;26.980;2023-06-14T10:07:53;98756.41;;;30.81;36.57
12799;BME280;19250;42.646;26.980;2023-06-14T10:10:22;98762.09;;;31.08;36.12
12799;BME280;19250;42.646;26.980;2023-06-14T10:12:51;98766.50;;;30.19;37.56
12799;BME280;19250;42.646;26.980;2023-06-14T10:15:22;98758.72;;;30.93;36.34
12799;BME280;19250;42.646;26.980;2023-06-14T10:17:54;98756.72;;;32.19;34.88
12799;BME280;19250;42.646;26.980;2023-06-14T10:20:28;98758.31;;;32.88;33.52
12799;BME280;19250;42.646;26.980;2023-06-14T10:23:01;98774.28;;;33.40;33.25
12799;BME280;19250;42.646;26.980;2023-06-14T10:25:31;98772.09;;;34.26;31.53
12799;BME280;19250;42.646;26.980;2023-06-14T10:28:19;98769.16;;;35.10;31.00
12799;BME280;19250;42.646;26.980;2023-06-14T10:31:03;98772.56;;;36.39;28.75
12799;BME280;19250;42.646;26.980;2023-06-14T10:33:30;98753.19;;;34.20;30.71
12799;BME280;19250;42.646;26.980;2023-06-14T10:36:07;98763.97;;;32.83;32.99
12799;BME280;19250;42.646;26.980;2023-06-14T10:38:35;98759.06;;;32.25;34.03
12799;BME280;19250;42.646;26.980;2023-06-14T10:41:03;98753.66;;;31.88;35.17
12799;BME280;19250;42.646;26.980;2023-06-14T10:43:31;98752.19;;;32.09;34.22
12799;BME280;19250;42.646;26.980;2023-06-14T10:46:14;98759.69;;;32.77;33.39
12799;BME280;19250;42.646;26.980;2023-06-14T10:48:42;98753.88;;;32.65;33.70
12799;BME280;19250;42.646;26.980;2023-06-14T10:51:15;98756.19;;;32.03;33.88
12799;BME280;19250;42.646;26.980;2023-06-14T10:53:45;98756.19;;;32.30;34.10
12799;BME280;19250;42.646;26.980;2023-06-14T10:56:22;98759.44;;;32.05;34.73
12799;BME280;19250;42.646;26.980;2023-06-14T10:58:53;98756.09;;;32.35;34.04
12799;BME280;19250;42.646;26.980;2023-06-14T11:01:24;98749.19;;;31.41;34.91
12799;BME280;19250;42.646;26.980;2023-06-14T11:03:53;98750.41;;;31.86;35.13
12799;BME280;19250;42.646;26.980;2023-06-14T11:06:21;98749.47;;;32.64;33.36
12799;BME280;19250;42.646;26.980;2023-06-14T11:11:41;98748.63;;;33.49;32.34
12799;BME280;19250;42.646;26.980;2023-06-14T11:14:10;98754.94;;;35.12;30.12
12799;BME280;19250;42.646;26.980;2023-06-14T11:16:37;98749.94;;;34.26;30.88
12799;BME280;19250;42.646;26.980;2023-06-14T11:19:04;98756.25;;;34.49;30.64
12799;BME280;19250;42.646;26.980;2023-06-14T11:21:31;98750.66;;;34.40;29.73
12799;BME280;19250;42.646;26.980;2023-06-14T11:23:58;98749.44;;;32.37;32.65
12799;BME280;19250;42.646;26.980;2023-06-14T11:26:26;98746.59;;;31.82;33.48
12799;BME280;19250;42.646;26.980;2023-06-14T11:28:57;98742.59;;;31.74;34.48
12799;BME280;19250;42.646;26.980;2023-06-14T11:31:26;98728.72;;;31.93;34.46
12799;BME280;19250;42.646;26.980;2023-06-14T11:33:53;98731.69;;;33.94;31.26
12799;BME280;19250;42.646;26.980;2023-06-14T11:36:20;98731.31;;;34.58;30.68
12799;BME280;19250;42.646;26.980;2023-06-14T11:38:47;98732.28;;;33.83;31.71
12799;BME280;19250;42.646;26.980;2023-06-14T11:41:14;98731.72;;;32.92;32.56
12799;BME280;19250;42.646;26.980;2023-06-14T11:43:41;98731.28;;;32.63;33.44
12799;BME280;19250;42.646;26.980;2023-06-14T11:46:12;98730.75;;;32.20;34.01
12799;BME280;19250;42.646;26.980;2023-06-14T11:48:41;98727.25;;;32.55;33.79
12799;BME280;19250;42.646;26.980;2023-06-14T11:51:08;98725.44;;;33.58;32.98
12799;BME280;19250;42.646;26.980;2023-06-14T11:53:36;98725.19;;;33.90;31.80
12799;BME280;19250;42.646;26.980;2023-06-14T11:56:03;98719.31;;;34.23;30.73
12799;BME280;19250;42.646;26.980;2023-06-14T11:58:31;98728.78;;;34.87;30.56
12799;BME280;19250;42.646;26.980;2023-06-14T12:00:57;98726.69;;;35.70;28.89
12799;BME280;19250;42.646;26.980;2023-06-14T12:03:24;98735.88;;;35.19;30.27
12799;BME280;19250;42.646;26.980;2023-06-14T12:06:03;98730.25;;;34.84;30.19
12799;BME280;19250;42.646;26.980;2023-06-14T12:08:33;98725.91;;;33.29;31.58
12799;BME280;19250;42.646;26.980;2023-06-14T12:11:05;98724.13;;;33.11;32.16
12799;BME280;19250;42.646;26.980;2023-06-14T12:13:34;98733.09;;;35.10;29.90
12799;BME280;19250;42.646;26.980;2023-06-14T12:16:01;98725.84;;;34.27;30.05
12799;BME280;19250;42.646;26.980;2023-06-14T12:18:31;98723.25;;;34.78;29.72
12799;BME280;19250;42.646;26.980;2023-06-14T12:20:59;98713.16;;;35.60;27.83
12799;BME280;19250;42.646;26.980;2023-06-14T12:23:39;98713.31;;;34.94;29.71
12799;BME280;19250;42.646;26.980;2023-06-14T12:26:06;98723.41;;;34.90;30.14
12799;BME280;19250;42.646;26.980;2023-06-14T12:28:33;98704.06;;;34.42;30.23
12799;BME280;19250;42.646;26.980;2023-06-14T12:31:00;98713.56;;;34.11;31.30
12799;BME280;19250;42.646;26.980;2023-06-14T12:33:27;98709.78;;;34.46;30.36
12799;BME280;19250;42.646;26.980;2023-06-14T12:35:54;98709.28;;;33.74;30.83
12799;BME280;19250;42.646;26.980;2023-06-14T12:38:22;98700.75;;;33.39;31.23
12799;BME280;19250;42.646;26.980;2023-06-14T12:40:50;98693.41;;;31.95;33.35
12799;BME280;19250;42.646;26.980;2023-06-14T12:43:17;98689.63;;;33.53;31.38
12799;BME280;19250;42.646;26.980;2023-06-14T12:45:45;98707.16;;;35.15;29.48
12799;BME280;19250;42.646;26.980;2023-06-14T12:48:12;98700.16;;;34.04;29.98
12799;BME280;19250;42.646;26.980;2023-06-14T12:50:39;98693.72;;;32.98;31.61
12799;BME280;19250;42.646;26.980;2023-06-14T12:53:06;98686.09;;;31.40;33.09
12799;BME280;19250;42.646;26.980;2023-06-14T12:55:33;98691.00;;;30.73;34.27